• Join FlightAware (Why Join?)
  • Login
  • US Flag 
02:42PM EDT


 

Airport Tracker/Info


-or-


 

Live Flight TrackerFlight Track Log ✈ FLG3861 ✈ 17-Nov-2013 ✈ KDTW - KBGM

Flight Track Log - Related Links

Times and Time Zones

All times are in EST time to prevent confusion due to time zone crossing. See the FLG3861 flight status page for this flight to view local times or setup timezone preferences in your user account.

Time Position Orientation Groundspeed Altitude Reporting Facility
EST Latitude Longitude Course Direction KTS MPH feet Rate Location/Type
11:21PM 42.2044 -83.3894 299° West 139 160 1,700  Level Cleveland Center
11:22PM 42.2256 -83.4403 299° West 179 206 4,600 2,460 Climbing Cleveland Center
11:23PM 42.2339 -83.4553 307° West 170 196 5,300 2,820 Climbing Cleveland Center
11:23PM 42.2722 -83.4864 329° Northwest 247 284 7,500 3,240 Climbing Cleveland Center
11:24PM 42.3033 -83.4722 19° North 251 289 8,600 2,400 Climbing Cleveland Center
11:24PM 42.3303 -83.4131 58° Northeast 348 400 9,900 2,280 Climbing Cleveland Center
11:25PM 42.3322 -83.3608 87° East 326 375 10,900 1,500 Climbing Cleveland Center
11:26PM 42.3392 -83.2139 86° East 376 433 12,100 1,080 Climbing Cleveland Center
11:27PM 42.3456 -83.0714 86° East 404 465 13,200 1,080 Climbing Cleveland Center
11:28PM 42.3517 -82.9050 87° East 433 498 14,400 1,200 Climbing Cleveland Center
11:29PM 42.3592 -82.7353 87° East 448 516 15,700 1,200 Climbing Cleveland Center
11:30PM 42.3661 -82.5628 87° East 458 527 16,900 1,380 Climbing Cleveland Center
11:31PM 42.3686 -82.3881 89° East 464 534 18,500 1,320 Climbing Cleveland Center
11:32PM 42.3592 -82.2161 94° East 459 528 19,700 1,140 Climbing Cleveland Center
11:33PM 42.3511 -82.0142 93° East 465 535 20,900 1,020 Climbing Cleveland Center
11:34PM 42.3428 -81.8350 94° East 471 542 21,800 720 Climbing Cleveland Center
11:35PM 42.3350 -81.6522 93° East 479 551 22,400 540 Climbing Cleveland Center
11:36PM 42.3269 -81.4658 93° East 489 563 22,900 480 Climbing Cleveland Center
11:37PM 42.3169 -81.2747 94° East 499 574 23,400 480 Climbing Cleveland Center
11:38PM 42.3069 -81.0850 94° East 503 579 23,900 540 Climbing Cleveland Center
11:39PM 42.2975 -80.8914 94° East 510 587 24,500 540 Climbing Cleveland Center
11:40PM 42.2864 -80.6967 94° East 513 590 25,000 480 Climbing Cleveland Center
11:41PM 42.2761 -80.5033 94° East 514 592 25,500 480 Climbing Cleveland Center
11:42PM 42.2650 -80.3036 94° East 520 598 26,000 480 Climbing Cleveland Center
11:43PM 42.2531 -80.1083 95° East 524 603 26,500 480 Climbing Cleveland Center
11:44PM 42.2400 -79.9033 95° East 525 604 27,000 240 Climbing Cleveland Center
11:45PM 42.2267 -79.7069 95° East 528 608 27,000  Level Cleveland Center
11:46PM 42.2136 -79.5061 95° East 536 617 27,000  Level Cleveland Center
11:47PM 42.2161 -79.2958 89° East 556 640 27,000 -120 Level Cleveland Center
11:48PM 42.2194 -79.0833 89° East 566 651 26,800  Descending Cleveland Center
11:49PM 42.2197 -78.9014 90° East 508 585 27,000 -120 Climbing Cleveland Center
11:50PM 42.2219 -78.7211 89° East 482 555 26,600 -1,140 Descending Cleveland Center
11:51PM 42.2244 -78.5472 89° East 473 544 24,700 -1,800 Descending Cleveland Center
11:52PM 42.2242 -78.3825 90° East 450 518 23,000 -900 Descending Cleveland Center
11:53PM 42.2242 -78.2250 90° East 428 493 22,900  Descending Cleveland Center
11:54PM 42.2219 -78.0644 91° East 429 494 23,000  Climbing Cleveland Center
11:55PM 42.2239 -77.8992 89° East 440 506 23,000  Level Cleveland Center
11:56PM 42.2244 -77.7383 90° East 438 504 23,000  Level Cleveland Center
11:57PM 42.2236 -77.5436 90° East 436 502 23,000 -540 Level Cleveland Center
11:58PM 42.2547 -77.3797 76° East 460 529 22,000 -1,380 Descending Cleveland Center
11:59PM 42.2989 -77.2258 69° East 451 519 20,300 -1,920 Descending Cleveland Center
12:00AM 42.3433 -77.0792 68° East 435 501 18,200 -2,280 Descending Cleveland Center
12:01AM 42.3842 -76.9394 68° East 414 476 15,800 -2,580 Descending Cleveland Center
12:02AM 42.4183 -76.8008 71° East 398 458 13,000 -2,880 Descending Cleveland Center
12:03AM 42.4522 -76.6719 70° East 372 428 10,100 -2,940 Descending Cleveland Center
12:04AM 42.4831 -76.5497 71° East 351 404 7,100 -2,160 Descending Cleveland Center
12:05AM 42.4944 -76.4344 82° East 317 365 5,800 -960 Descending Cleveland Center
12:06AM 42.5022 -76.3025 85° East 305 351 5,000 -420 Descending New York Center
12:07AM 42.4797 -76.2078 108° East 267 307 5,000 -180 Level New York Center
12:08AM 42.4447 -76.1486 129° Southeast 232 267 4,700 -540 Descending New York Center
12:09AM 42.4019 -76.1311 163° South 185 213 4,000 -360 Descending New York Center
12:10AM 42.3650 -76.1169 164° South 155 178 4,000  Level New York Center
12:11AM 42.3331 -76.0917 150° Southeast 149 171 4,000 -120 Level New York Center
12:12AM 42.3008 -76.0667 150° Southeast 144 166 3,800 -420 Descending New York Center
12:13AM 42.2769 -76.0422 143° Southeast 123 142 3,200 -600 Descending New York Center
12:14AM 42.2528 -76.0208 147° Southeast 111 128 2,600 -600 Descending New York Center
12:15AM 42.2228 -75.9933 146° Southeast 111 128 2,100 1,200 Descending New York Center
12:16AM 42.1989 -75.9717 146° Southeast 111 128 5,000 1,440 Climbing New York Center
12:17AM 42.1728 -75.9472 145° Southeast 111 128 5,000  Level New York Center
12:18AM 42.1486 -75.9258 147° Southeast 111 128 5,000  Level New York Center